sensor_id;sensor_type;location;lat;lon;timestamp;pressure;altitude;pressure_sealevel;temperature;humidity
28306;BME280;7516;43.570;1.448;2022-11-20T00:00:50;99878.38;;;6.92;100.00
28306;BME280;7516;43.570;1.448;2022-11-20T00:03:19;99873.16;;;6.92;100.00
28306;BME280;7516;43.570;1.448;2022-11-20T00:05:47;99878.38;;;6.92;100.00
28306;BME280;7516;43.570;1.448;2022-11-20T00:08:15;99875.63;;;6.93;100.00
28306;BME280;7516;43.570;1.448;2022-11-20T00:10:42;99877.41;;;6.93;100.00
28306;BME280;7516;43.570;1.448;2022-11-20T00:13:10;99879.19;;;6.92;100.00
28306;BME280;7516;43.570;1.448;2022-11-20T00:15:37;99879.19;;;6.92;100.00
28306;BME280;7516;43.570;1.448;2022-11-20T00:18:05;99867.97;;;6.92;100.00
28306;BME280;7516;43.570;1.448;2022-11-20T00:20:33;99869.75;;;6.91;100.00
28306;BME280;7516;43.570;1.448;2022-11-20T00:23:01;99869.88;;;6.90;100.00
28306;BME280;7516;43.570;1.448;2022-11-20T00:25:28;99874.13;;;6.91;100.00
28306;BME280;7516;43.570;1.448;2022-11-20T00:27:56;99876.59;;;6.92;100.00
28306;BME280;7516;43.570;1.448;2022-11-20T00:30:23;99875.50;;;6.95;100.00
28306;BME280;7516;43.570;1.448;2022-11-20T00:32:51;99878.47;;;7.00;100.00
28306;BME280;7516;43.570;1.448;2022-11-20T00:35:18;99872.00;;;7.04;100.00
28306;BME280;7516;43.570;1.448;2022-11-20T00:37:47;99871.03;;;7.05;100.00
28306;BME280;7516;43.570;1.448;2022-11-20T00:40:15;99872.97;;;7.03;100.00
28306;BME280;7516;43.570;1.448;2022-11-20T00:42:42;99873.94;;;7.02;100.00
28306;BME280;7516;43.570;1.448;2022-11-20T00:45:10;99869.56;;;7.02;100.00
28306;BME280;7516;43.570;1.448;2022-11-20T00:47:37;99875.72;;;7.01;100.00
28306;BME280;7516;43.570;1.448;2022-11-20T00:50:05;99881.06;;;7.00;100.00
28306;BME280;7516;43.570;1.448;2022-11-20T00:52:33;99875.88;;;7.00;100.00
28306;BME280;7516;43.570;1.448;2022-11-20T00:55:02;99878.34;;;7.01;100.00
28306;BME280;7516;43.570;1.448;2022-11-20T00:57:30;99869.38;;;7.04;100.00
28306;BME280;7516;43.570;1.448;2022-11-20T00:59:58;99874.31;;;7.07;100.00
28306;BME280;7516;43.570;1.448;2022-11-20T01:02:25;99873.06;;;7.11;100.00
28306;BME280;7516;43.570;1.448;2022-11-20T01:04:53;99875.38;;;7.14;100.00
28306;BME280;7516;43.570;1.448;2022-11-20T01:07:20;99869.34;;;7.13;100.00
28306;BME280;7516;43.570;1.448;2022-11-20T01:09:48;99874.03;;;7.10;100.00
28306;BME280;7516;43.570;1.448;2022-11-20T01:12:17;99873.63;;;7.05;100.00
28306;BME280;7516;43.570;1.448;2022-11-20T01:14:44;99870.66;;;7.00;100.00
28306;BME280;7516;43.570;1.448;2022-11-20T01:17:11;99865.72;;;6.97;100.00
28306;BME280;7516;43.570;1.448;2022-11-20T01:19:39;99872.91;;;6.95;100.00
28306;BME280;7516;43.570;1.448;2022-11-20T01:22:07;99870.44;;;6.93;100.00
28306;BME280;7516;43.570;1.448;2022-11-20T01:24:34;99878.09;;;6.95;100.00
28306;BME280;7516;43.570;1.448;2022-11-20T01:27:02;99873.41;;;6.98;100.00
28306;BME280;7516;43.570;1.448;2022-11-20T01:29:30;99877.78;;;6.98;100.00
28306;BME280;7516;43.570;1.448;2022-11-20T01:31:58;99876.72;;;6.91;100.00
28306;BME280;7516;43.570;1.448;2022-11-20T01:34:25;99878.41;;;6.82;100.00
28306;BME280;7516;43.570;1.448;2022-11-20T01:36:53;99878.19;;;6.75;100.00
28306;BME280;7516;43.570;1.448;2022-11-20T01:39:23;99875.31;;;6.69;100.00
28306;BME280;7516;43.570;1.448;2022-11-20T01:41:52;99885.47;;;6.62;100.00
28306;BME280;7516;43.570;1.448;2022-11-20T01:44:53;99887.00;;;6.55;100.00
28306;BME280;7516;43.570;1.448;2022-11-20T01:47:26;99882.38;;;6.49;100.00
28306;BME280;7516;43.570;1.448;2022-11-20T01:49:58;99881.84;;;6.46;100.00
28306;BME280;7516;43.570;1.448;2022-11-20T01:52:32;99884.06;;;6.40;100.00
28306;BME280;7516;43.570;1.448;2022-11-20T01:55:05;99883.50;;;6.37;100.00
28306;BME280;7516;43.570;1.448;2022-11-20T01:57:34;99891.59;;;6.34;100.00
28306;BME280;7516;43.570;1.448;2022-11-20T02:00:07;99881.47;;;6.31;100.00
28306;BME280;7516;43.570;1.448;2022-11-20T02:02:36;99887.63;;;6.30;100.00
28306;BME280;7516;43.570;1.448;2022-11-20T02:05:12;99885.31;;;6.27;100.00
28306;BME280;7516;43.570;1.448;2022-11-20T02:07:42;99883.97;;;6.23;100.00
28306;BME280;7516;43.570;1.448;2022-11-20T02:10:10;99890.38;;;6.19;100.00
28306;BME280;7516;43.570;1.448;2022-11-20T02:12:38;99890.66;;;6.16;100.00
28306;BME280;7516;43.570;1.448;2022-11-20T02:15:25;99888.22;;;6.14;100.00
28306;BME280;7516;43.570;1.448;2022-11-20T02:17:52;99891.78;;;6.13;100.00
28306;BME280;7516;43.570;1.448;2022-11-20T02:20:20;99899.03;;;6.10;100.00
28306;BME280;7516;43.570;1.448;2022-11-20T02:22:53;99899.16;;;6.08;100.00
28306;BME280;7516;43.570;1.448;2022-11-20T02:25:25;99899.31;;;6.07;100.00
28306;BME280;7516;43.570;1.448;2022-11-20T02:27:54;99894.25;;;6.05;100.00
28306;BME280;7516;43.570;1.448;2022-11-20T02:30:21;99887.53;;;6.02;100.00
28306;BME280;7516;43.570;1.448;2022-11-20T02:32:49;99898.91;;;6.01;100.00
28306;BME280;7516;43.570;1.448;2022-11-20T02:35:38;99900.00;;;5.99;100.00
28306;BME280;7516;43.570;1.448;2022-11-20T02:38:06;99897.56;;;5.97;100.00
28306;BME280;7516;43.570;1.448;2022-11-20T02:40:35;99897.13;;;5.92;100.00
28306;BME280;7516;43.570;1.448;2022-11-20T02:43:02;99893.19;;;5.88;100.00
28306;BME280;7516;43.570;1.448;2022-11-20T02:45:30;99891.50;;;5.87;100.00
28306;BME280;7516;43.570;1.448;2022-11-20T02:47:57;99883.00;;;5.85;100.00
28306;BME280;7516;43.570;1.448;2022-11-20T02:50:25;99880.53;;;5.84;100.00
28306;BME280;7516;43.570;1.448;2022-11-20T02:52:53;99885.88;;;5.82;100.00
28306;BME280;7516;43.570;1.448;2022-11-20T02:55:20;99885.22;;;5.80;100.00
28306;BME280;7516;43.570;1.448;2022-11-20T02:57:49;99887.94;;;5.79;100.00
28306;BME280;7516;43.570;1.448;2022-11-20T03:00:17;99894.22;;;5.76;100.00
28306;BME280;7516;43.570;1.448;2022-11-20T03:02:45;99908.19;;;5.75;100.00
28306;BME280;7516;43.570;1.448;2022-11-20T03:05:12;99898.03;;;5.72;100.00
28306;BME280;7516;43.570;1.448;2022-11-20T03:07:40;99901.63;;;5.71;100.00
28306;BME280;7516;43.570;1.448;2022-11-20T03:10:08;99887.13;;;5.68;100.00
28306;BME280;7516;43.570;1.448;2022-11-20T03:12:35;99900.25;;;5.67;100.00
28306;BME280;7516;43.570;1.448;2022-11-20T03:15:05;99900.25;;;5.67;100.00
28306;BME280;7516;43.570;1.448;2022-11-20T03:17:33;99893.41;;;5.66;100.00
28306;BME280;7516;43.570;1.448;2022-11-20T03:20:01;99892.56;;;5.65;100.00
28306;BME280;7516;43.570;1.448;2022-11-20T03:22:29;99890.09;;;5.64;100.00
28306;BME280;7516;43.570;1.448;2022-11-20T03:24:57;99886.84;;;5.62;100.00
28306;BME280;7516;43.570;1.448;2022-11-20T03:27:24;99883.56;;;5.60;100.00
28306;BME280;7516;43.570;1.448;2022-11-20T03:29:51;99878.34;;;5.60;100.00
28306;BME280;7516;43.570;1.448;2022-11-20T03:32:20;99883.69;;;5.58;100.00
28306;BME280;7516;43.570;1.448;2022-11-20T03:34:48;99876.97;;;5.56;100.00
28306;BME280;7516;43.570;1.448;2022-11-20T03:37:15;99871.13;;;5.54;100.00
28306;BME280;7516;43.570;1.448;2022-11-20T03:39:43;99873.72;;;5.54;100.00
28306;BME280;7516;43.570;1.448;2022-11-20T03:42:10;99882.47;;;5.53;100.00
28306;BME280;7516;43.570;1.448;2022-11-20T03:44:52;99870.41;;;5.52;100.00
28306;BME280;7516;43.570;1.448;2022-11-20T03:47:21;99876.56;;;5.51;100.00
28306;BME280;7516;43.570;1.448;2022-11-20T03:49:48;99874.09;;;5.49;100.00
28306;BME280;7516;43.570;1.448;2022-11-20T03:52:16;99873.41;;;5.47;100.00
28306;BME280;7516;43.570;1.448;2022-11-20T03:54:43;99873.69;;;5.44;100.00
28306;BME280;7516;43.570;1.448;2022-11-20T03:57:11;99868.63;;;5.43;100.00
28306;BME280;7516;43.570;1.448;2022-11-20T03:59:38;99868.91;;;5.40;100.00
28306;BME280;7516;43.570;1.448;2022-11-20T04:02:06;99864.66;;;5.39;100.00
28306;BME280;7516;43.570;1.448;2022-11-20T04:04:34;99864.94;;;5.36;100.00
28306;BME280;7516;43.570;1.448;2022-11-20T04:07:02;99868.50;;;5.35;100.00
28306;BME280;7516;43.570;1.448;2022-11-20T04:09:30;99879.84;;;5.34;100.00
28306;BME280;7516;43.570;1.448;2022-11-20T04:11:57;99868.75;;;5.32;100.00
28306;BME280;7516;43.570;1.448;2022-11-20T04:14:25;99870.66;;;5.29;100.00
28306;BME280;7516;43.570;1.448;2022-11-20T04:16:52;99866.41;;;5.28;100.00
28306;BME280;7516;43.570;1.448;2022-11-20T04:19:20;99864.91;;;5.26;100.00
28306;BME280;7516;43.570;1.448;2022-11-20T04:21:49;99865.06;;;5.24;100.00
28306;BME280;7516;43.570;1.448;2022-11-20T04:24:16;99860.13;;;5.21;100.00
28306;BME280;7516;43.570;1.448;2022-11-20T04:26:44;99850.69;;;5.20;100.00
28306;BME280;7516;43.570;1.448;2022-11-20T04:29:11;99858.47;;;5.20;100.00
28306;BME280;7516;43.570;1.448;2022-11-20T04:31:39;99860.25;;;5.20;100.00
28306;BME280;7516;43.570;1.448;2022-11-20T04:34:07;99862.19;;;5.18;100.00
28306;BME280;7516;43.570;1.448;2022-11-20T04:36:35;99859.59;;;5.18;100.00
28306;BME280;7516;43.570;1.448;2022-11-20T04:39:05;99856.16;;;5.17;100.00
28306;BME280;7516;43.570;1.448;2022-11-20T04:41:35;99854.50;;;5.16;100.00
28306;BME280;7516;43.570;1.448;2022-11-20T04:44:04;99851.91;;;5.16;100.00
28306;BME280;7516;43.570;1.448;2022-11-20T04:46:34;99847.66;;;5.15;100.00
28306;BME280;7516;43.570;1.448;2022-11-20T04:49:02;99852.03;;;5.15;100.00
28306;BME280;7516;43.570;1.448;2022-11-20T04:51:30;99848.75;;;5.13;100.00
28306;BME280;7516;43.570;1.448;2022-11-20T04:53:57;99849.03;;;5.10;100.00
28306;BME280;7516;43.570;1.448;2022-11-20T04:56:26;99854.22;;;5.10;100.00
28306;BME280;7516;43.570;1.448;2022-11-20T04:58:54;99849.28;;;5.07;100.00
28306;BME280;7516;43.570;1.448;2022-11-20T05:01:23;99855.56;;;5.04;100.00
28306;BME280;7516;43.570;1.448;2022-11-20T05:03:51;99859.13;;;5.03;100.00
28306;BME280;7516;43.570;1.448;2022-11-20T05:06:22;99850.66;;;5.01;100.00
28306;BME280;7516;43.570;1.448;2022-11-20T05:08:50;99853.25;;;5.01;100.00
28306;BME280;7516;43.570;1.448;2022-11-20T05:11:19;99851.44;;;5.02;100.00
28306;BME280;7516;43.570;1.448;2022-11-20T05:13:49;99845.47;;;5.01;100.00
28306;BME280;7516;43.570;1.448;2022-11-20T05:16:18;99853.25;;;5.01;100.00
28306;BME280;7516;43.570;1.448;2022-11-20T05:18:46;99849.03;;;5.00;100.00
28306;BME280;7516;43.570;1.448;2022-11-20T05:21:14;99850.09;;;4.98;100.00
28306;BME280;7516;43.570;1.448;2022-11-20T05:23:43;99856.25;;;4.97;100.00
28306;BME280;7516;43.570;1.448;2022-11-20T05:26:14;99854.72;;;4.94;100.00
28306;BME280;7516;43.570;1.448;2022-11-20T05:28:42;99855.53;;;4.95;100.00
28306;BME280;7516;43.570;1.448;2022-11-20T05:31:12;99856.50;;;4.93;100.00
28306;BME280;7516;43.570;1.448;2022-11-20T05:33:41;99846.94;;;4.94;100.00
28306;BME280;7516;43.570;1.448;2022-11-20T05:36:09;99844.63;;;4.91;100.00
28306;BME280;7516;43.570;1.448;2022-11-20T05:38:37;99844.63;;;4.91;100.00
28306;BME280;7516;43.570;1.448;2022-11-20T05:41:06;99843.91;;;4.89;100.00
28306;BME280;7516;43.570;1.448;2022-11-20T05:43:34;99843.09;;;4.88;100.00
28306;BME280;7516;43.570;1.448;2022-11-20T05:46:02;99842.41;;;4.86;100.00
28306;BME280;7516;43.570;1.448;2022-11-20T05:48:31;99845.13;;;4.85;100.00
28306;BME280;7516;43.570;1.448;2022-11-20T05:50:59;99847.06;;;4.83;100.00
28306;BME280;7516;43.570;1.448;2022-11-20T05:53:27;99845.28;;;4.83;100.00
28306;BME280;7516;43.570;1.448;2022-11-20T05:55:59;99848.97;;;4.81;100.00
28306;BME280;7516;43.570;1.448;2022-11-20T05:58:27;99841.16;;;4.81;100.00
28306;BME280;7516;43.570;1.448;2022-11-20T06:00:54;99840.47;;;4.79;100.00
28306;BME280;7516;43.570;1.448;2022-11-20T06:03:22;99843.19;;;4.77;100.00
28306;BME280;7516;43.570;1.448;2022-11-20T06:05:51;99849.34;;;4.76;100.00
28306;BME280;7516;43.570;1.448;2022-11-20T06:08:18;99857.94;;;4.77;100.00
28306;BME280;7516;43.570;1.448;2022-11-20T06:10:46;99857.28;;;4.75;100.00
28306;BME280;7516;43.570;1.448;2022-11-20T06:13:13;99862.59;;;4.73;100.00
28306;BME280;7516;43.570;1.448;2022-11-20T06:15:41;99859.31;;;4.71;100.00
28306;BME280;7516;43.570;1.448;2022-11-20T06:18:08;99865.44;;;4.70;100.00
28306;BME280;7516;43.570;1.448;2022-11-20T06:20:36;99865.56;;;4.69;100.00
28306;BME280;7516;43.570;1.448;2022-11-20T06:23:04;99862.28;;;4.67;100.00
28306;BME280;7516;43.570;1.448;2022-11-20T06:25:32;99853.81;;;4.65;100.00
28306;BME280;7516;43.570;1.448;2022-11-20T06:27:59;99853.81;;;4.65;100.00
28306;BME280;7516;43.570;1.448;2022-11-20T06:30:27;99852.44;;;4.61;100.00
28306;BME280;7516;43.570;1.448;2022-11-20T06:32:54;99860.34;;;4.59;100.00
28306;BME280;7516;43.570;1.448;2022-11-20T06:35:22;99851.72;;;4.59;100.00
28306;BME280;7516;43.570;1.448;2022-11-20T06:37:49;99849.41;;;4.56;100.00
28306;BME280;7516;43.570;1.448;2022-11-20T06:40:18;99851.19;;;4.55;100.00
28306;BME280;7516;43.570;1.448;2022-11-20T06:42:46;99851.31;;;4.53;100.00
28306;BME280;7516;43.570;1.448;2022-11-20T06:45:13;99848.72;;;4.53;100.00
28306;BME280;7516;43.570;1.448;2022-11-20T06:47:41;99850.59;;;4.51;100.00
28306;BME280;7516;43.570;1.448;2022-11-20T06:50:09;99857.56;;;4.51;100.00
28306;BME280;7516;43.570;1.448;2022-11-20T06:52:36;99852.38;;;4.51;100.00
28306;BME280;7516;43.570;1.448;2022-11-20T06:55:04;99851.56;;;4.50;100.00
28306;BME280;7516;43.570;1.448;2022-11-20T06:57:33;99855.09;;;4.49;100.00
28306;BME280;7516;43.570;1.448;2022-11-20T07:00:01;99852.50;;;4.49;100.00
28306;BME280;7516;43.570;1.448;2022-11-20T07:02:29;99850.72;;;4.50;100.00
28306;BME280;7516;43.570;1.448;2022-11-20T07:04:56;99856.63;;;4.52;100.00
28306;BME280;7516;43.570;1.448;2022-11-20T07:07:24;99854.84;;;4.52;100.00
28306;BME280;7516;43.570;1.448;2022-11-20T07:09:51;99856.50;;;4.53;100.00
28306;BME280;7516;43.570;1.448;2022-11-20T07:12:18;99863.06;;;4.58;100.00
28306;BME280;7516;43.570;1.448;2022-11-20T07:14:47;99861.28;;;4.58;100.00
28306;BME280;7516;43.570;1.448;2022-11-20T07:17:15;99856.78;;;4.60;100.00
28306;BME280;7516;43.570;1.448;2022-11-20T07:19:42;99862.56;;;4.64;100.00
28306;BME280;7516;43.570;1.448;2022-11-20T07:22:10;99874.31;;;4.68;100.00
28306;BME280;7516;43.570;1.448;2022-11-20T07:24:37;99877.34;;;4.73;100.00
28306;BME280;7516;43.570;1.448;2022-11-20T07:27:05;99879.53;;;4.77;100.00
28306;BME280;7516;43.570;1.448;2022-11-20T07:29:32;99878.22;;;4.83;100.00
28306;BME280;7516;43.570;1.448;2022-11-20T07:32:01;99886.53;;;4.86;100.00
28306;BME280;7516;43.570;1.448;2022-11-20T07:34:29;99880.97;;;4.91;100.00
28306;BME280;7516;43.570;1.448;2022-11-20T07:36:56;99884.78;;;4.97;100.00
28306;BME280;7516;43.570;1.448;2022-11-20T07:39:24;99881.81;;;5.01;100.00
28306;BME280;7516;43.570;1.448;2022-11-20T07:41:51;99882.09;;;5.08;100.00
28306;BME280;7516;43.570;1.448;2022-11-20T07:44:18;99885.69;;;5.16;100.00
28306;BME280;7516;43.570;1.448;2022-11-20T07:46:46;99876.97;;;5.27;100.00
28306;BME280;7516;43.570;1.448;2022-11-20T07:49:15;99879.41;;;5.38;100.00
28306;BME280;7516;43.570;1.448;2022-11-20T07:51:42;99883.53;;;5.50;100.00
28306;BME280;7516;43.570;1.448;2022-11-20T07:54:10;99890.94;;;5.64;100.00
28306;BME280;7516;43.570;1.448;2022-11-20T07:56:37;99889.03;;;5.76;100.00
28306;BME280;7516;43.570;1.448;2022-11-20T07:59:05;99886.03;;;5.90;100.00
28306;BME280;7516;43.570;1.448;2022-11-20T08:01:32;99885.91;;;6.01;100.00
28306;BME280;7516;43.570;1.448;2022-11-20T08:04:00;99895.47;;;6.11;100.00
28306;BME280;7516;43.570;1.448;2022-11-20T08:06:28;99891.06;;;6.21;100.00
28306;BME280;7516;43.570;1.448;2022-11-20T08:08:56;99889.69;;;6.26;100.00
28306;BME280;7516;43.570;1.448;2022-11-20T08:11:24;99897.59;;;6.34;100.00
28306;BME280;7516;43.570;1.448;2022-11-20T08:14:08;99899.22;;;6.45;100.00
28306;BME280;7516;43.570;1.448;2022-11-20T08:16:39;99895.91;;;6.53;100.00
28306;BME280;7516;43.570;1.448;2022-11-20T08:19:07;99900.41;;;6.60;100.00
28306;BME280;7516;43.570;1.448;2022-11-20T08:21:36;99893.84;;;6.66;100.00
28306;BME280;7516;43.570;1.448;2022-11-20T08:24:04;99901.50;;;6.67;100.00
28306;BME280;7516;43.570;1.448;2022-11-20T08:26:32;99905.31;;;6.73;100.00
28306;BME280;7516;43.570;1.448;2022-11-20T08:29:00;99906.69;;;6.77;100.00
28306;BME280;7516;43.570;1.448;2022-11-20T08:31:28;99914.34;;;6.78;100.00
28306;BME280;7516;43.570;1.448;2022-11-20T08:33:56;99922.56;;;6.84;100.00
28306;BME280;7516;43.570;1.448;2022-11-20T08:36:24;99922.66;;;6.92;100.00
28306;BME280;7516;43.570;1.448;2022-11-20T08:38:55;99914.25;;;6.98;100.00
28306;BME280;7516;43.570;1.448;2022-11-20T08:41:22;99924.91;;;7.04;100.00
28306;BME280;7516;43.570;1.448;2022-11-20T08:43:55;99926.84;;;7.12;100.00
28306;BME280;7516;43.570;1.448;2022-11-20T08:46:24;99917.38;;;7.11;100.00
28306;BME280;7516;43.570;1.448;2022-11-20T08:48:52;99915.50;;;7.03;100.00
28306;BME280;7516;43.570;1.448;2022-11-20T08:51:20;99924.41;;;7.01;100.00
28306;BME280;7516;43.570;1.448;2022-11-20T08:53:47;99941.81;;;7.00;100.00
28306;BME280;7516;43.570;1.448;2022-11-20T08:56:17;99937.28;;;7.02;100.00
28306;BME280;7516;43.570;1.448;2022-11-20T08:58:45;99946.75;;;7.03;100.00
28306;BME280;7516;43.570;1.448;2022-11-20T09:01:12;99947.53;;;7.04;100.00
28306;BME280;7516;43.570;1.448;2022-11-20T09:03:40;99954.50;;;7.13;100.00
28306;BME280;7516;43.570;1.448;2022-11-20T09:06:08;99955.59;;;7.20;100.00
28306;BME280;7516;43.570;1.448;2022-11-20T09:08:36;99959.53;;;7.24;100.00
28306;BME280;7516;43.570;1.448;2022-11-20T09:11:04;99959.75;;;7.31;100.00
28306;BME280;7516;43.570;1.448;2022-11-20T09:13:34;99961.28;;;7.33;100.00
28306;BME280;7516;43.570;1.448;2022-11-20T09:16:03;99971.41;;;7.36;100.00
28306;BME280;7516;43.570;1.448;2022-11-20T09:18:32;99970.59;;;7.36;100.00
28306;BME280;7516;43.570;1.448;2022-11-20T09:21:04;99973.88;;;7.38;100.00
28306;BME280;7516;43.570;1.448;2022-11-20T09:23:33;99980.88;;;7.37;100.00
28306;BME280;7516;43.570;1.448;2022-11-20T09:26:05;99982.34;;;7.40;100.00
28306;BME280;7516;43.570;1.448;2022-11-20T09:28:34;99977.97;;;7.40;100.00
28306;BME280;7516;43.570;1.448;2022-11-20T09:31:05;99982.91;;;7.43;100.00
28306;BME280;7516;43.570;1.448;2022-11-20T09:33:33;99993.19;;;7.45;100.00
28306;BME280;7516;43.570;1.448;2022-11-20T09:36:00;99975.75;;;7.45;100.00
28306;BME280;7516;43.570;1.448;2022-11-20T09:38:28;99970.91;;;7.50;100.00
28306;BME280;7516;43.570;1.448;2022-11-20T09:40:58;99959.38;;;7.53;100.00
28306;BME280;7516;43.570;1.448;2022-11-20T09:43:41;99950.16;;;7.59;100.00
28306;BME280;7516;43.570;1.448;2022-11-20T09:46:20;99957.53;;;7.63;100.00
28306;BME280;7516;43.570;1.448;2022-11-20T09:51:49;99940.25;;;7.62;100.00
28306;BME280;7516;43.570;1.448;2022-11-20T09:54:22;99932.13;;;7.65;100.00
28306;BME280;7516;43.570;1.448;2022-11-20T09:56:55;99928.41;;;7.68;100.00
28306;BME280;7516;43.570;1.448;2022-11-20T09:59:32;99915.22;;;7.69;100.00
28306;BME280;7516;43.570;1.448;2022-11-20T10:02:02;99906.13;;;7.73;100.00
28306;BME280;7516;43.570;1.448;2022-11-20T10:04:32;99911.88;;;7.77;100.00
28306;BME280;7516;43.570;1.448;2022-11-20T10:07:04;99906.50;;;7.78;100.00
28306;BME280;7516;43.570;1.448;2022-11-20T10:09:37;99915.91;;;7.89;100.00
28306;BME280;7516;43.570;1.448;2022-11-20T10:12:12;99929.28;;;7.94;100.00
28306;BME280;7516;43.570;1.448;2022-11-20T10:14:52;99926.13;;;8.00;100.00
28306;BME280;7516;43.570;1.448;2022-11-20T10:17:31;99917.97;;;8.03;100.00
28306;BME280;7516;43.570;1.448;2022-11-20T10:20:15;99929.44;;;8.10;100.00
28306;BME280;7516;43.570;1.448;2022-11-20T10:22:54;99941.56;;;8.19;100.00
28306;BME280;7516;43.570;1.448;2022-11-20T10:25:33;99932.34;;;8.25;100.00
28306;BME280;7516;43.570;1.448;2022-11-20T10:28:27;99941.63;;;8.27;100.00
28306;BME280;7516;43.570;1.448;2022-11-20T10:31:00;99940.25;;;8.33;100.00
28306;BME280;7516;43.570;1.448;2022-11-20T10:33:33;99940.63;;;8.38;100.00
28306;BME280;7516;43.570;1.448;2022-11-20T10:36:08;99929.72;;;8.43;100.00
28306;BME280;7516;43.570;1.448;2022-11-20T10:38:44;99926.03;;;8.53;100.00
28306;BME280;7516;43.570;1.448;2022-11-20T10:41:20;99924.28;;;8.62;100.00
28306;BME280;7516;43.570;1.448;2022-11-20T10:43:56;99918.47;;;8.68;100.00
28306;BME280;7516;43.570;1.448;2022-11-20T10:46:34;99906.72;;;8.72;100.00
28306;BME280;7516;43.570;1.448;2022-11-20T10:49:10;99905.63;;;8.83;100.00
28306;BME280;7516;43.570;1.448;2022-11-20T10:51:44;99909.09;;;8.91;100.00
28306;BME280;7516;43.570;1.448;2022-11-20T10:54:22;99899.50;;;9.00;100.00
28306;BME280;7516;43.570;1.448;2022-11-20T10:56:53;99898.38;;;9.02;100.00
28306;BME280;7516;43.570;1.448;2022-11-20T10:59:46;99895.78;;;9.11;100.00
28306;BME280;7516;43.570;1.448;2022-11-20T11:02:22;99874.91;;;9.19;100.00
28306;BME280;7516;43.570;1.448;2022-11-20T11:04:51;99872.63;;;9.24;100.00
28306;BME280;7516;43.570;1.448;2022-11-20T11:07:22;99874.59;;;9.30;100.00
28306;BME280;7516;43.570;1.448;2022-11-20T11:09:53;99865.28;;;9.35;100.00
28306;BME280;7516;43.570;1.448;2022-11-20T11:12:22;99865.47;;;9.42;100.00
28306;BME280;7516;43.570;1.448;2022-11-20T11:14:52;99862.53;;;9.53;100.00
28306;BME280;7516;43.570;1.448;2022-11-20T11:17:25;99861.56;;;9.62;100.00
28306;BME280;7516;43.570;1.448;2022-11-20T11:20:02;99861.75;;;9.69;100.00
28306;BME280;7516;43.570;1.448;2022-11-20T11:22:31;99861.13;;;9.83;100.00
28306;BME280;7516;43.570;1.448;2022-11-20T11:24:59;99865.69;;;9.97;100.00
28306;BME280;7516;43.570;1.448;2022-11-20T11:27:27;99867.97;;;10.08;100.00
28306;BME280;7516;43.570;1.448;2022-11-20T11:30:11;99860.94;;;10.17;100.00
28306;BME280;7516;43.570;1.448;2022-11-20T11:32:40;99852.44;;;10.23;100.00
28306;BME280;7516;43.570;1.448;2022-11-20T11:35:24;99844.25;;;10.26;100.00
28306;BME280;7516;43.570;1.448;2022-11-20T11:37:53;99831.78;;;10.36;100.00
28306;BME280;7516;43.570;1.448;2022-11-20T11:40:22;99830.94;;;10.44;100.00
28306;BME280;7516;43.570;1.448;2022-11-20T11:42:58;99824.69;;;10.53;100.00
28306;BME280;7516;43.570;1.448;2022-11-20T11:45:27;99816.97;;;10.60;100.00
28306;BME280;7516;43.570;1.448;2022-11-20T11:47:57;99817.59;;;10.70;100.00
28306;BME280;7516;43.570;1.448;2022-11-20T11:50:27;99816.56;;;10.79;100.00
28306;BME280;7516;43.570;1.448;2022-11-20T11:52:59;99810.63;;;10.85;100.00
28306;BME280;7516;43.570;1.448;2022-11-20T11:55:35;99816.19;;;10.90;100.00
28306;BME280;7516;43.570;1.448;2022-11-20T11:58:31;99818.16;;;10.88;100.00
28306;BME280;7516;43.570;1.448;2022-11-20T12:01:07;99819.16;;;10.87;100.00
28306;BME280;7516;43.570;1.448;2022-11-20T12:03:39;99814.06;;;10.85;100.00
28306;BME280;7516;43.570;1.448;2022-11-20T12:06:12;99812.56;;;10.91;100.00
28306;BME280;7516;43.570;1.448;2022-11-20T12:08:44;99809.41;;;11.04;100.00
28306;BME280;7516;43.570;1.448;2022-11-20T12:11:20;99805.56;;;11.14;100.00
28306;BME280;7516;43.570;1.448;2022-11-20T12:13:54;99802.25;;;11.20;100.00
28306;BME280;7516;43.570;1.448;2022-11-20T12:16:27;99794.97;;;11.30;100.00
28306;BME280;7516;43.570;1.448;2022-11-20T12:18:59;99792.44;;;11.37;100.00
28306;BME280;7516;43.570;1.448;2022-11-20T12:21:33;99790.13;;;11.42;100.00
28306;BME280;7516;43.570;1.448;2022-11-20T12:24:31;99790.59;;;11.46;100.00
28306;BME280;7516;43.570;1.448;2022-11-20T12:27:14;99785.81;;;11.49;100.00
28306;BME280;7516;43.570;1.448;2022-11-20T12:29:53;99785.91;;;11.56;100.00
28306;BME280;7516;43.570;1.448;2022-11-20T12:32:44;99785.75;;;11.57;100.00
28306;BME280;7516;43.570;1.448;2022-11-20T12:35:37;99782.22;;;11.65;100.00
28306;BME280;7516;43.570;1.448;2022-11-20T12:38:33;99778.22;;;11.77;100.00
28306;BME280;7516;43.570;1.448;2022-11-20T12:41:08;99774.06;;;11.83;100.00
28306;BME280;7516;43.570;1.448;2022-11-20T12:43:41;99775.16;;;11.88;100.00
28306;BME280;7516;43.570;1.448;2022-11-20T12:46:34;99770.38;;;11.92;100.00
28306;BME280;7516;43.570;1.448;2022-11-20T12:49:27;99771.44;;;11.97;100.00
28306;BME280;7516;43.570;1.448;2022-11-20T12:52:15;99768.47;;;12.00;100.00
28306;BME280;7516;43.570;1.448;2022-11-20T12:57:49;99778.63;;;12.03;100.00
28306;BME280;7516;43.570;1.448;2022-11-20T13:00:19;99771.56;;;12.04;100.00
28306;BME280;7516;43.570;1.448;2022-11-20T13:03:23;99784.72;;;12.04;100.00
28306;BME280;7516;43.570;1.448;2022-11-20T13:06:03;99787.84;;;11.85;100.00
28306;BME280;7516;43.570;1.448;2022-11-20T13:08:36;99780.91;;;11.46;100.00
28306;BME280;7516;43.570;1.448;2022-11-20T13:11:11;99779.28;;;11.22;100.00
28306;BME280;7516;43.570;1.448;2022-11-20T13:13:59;99767.28;;;11.05;100.00
28306;BME280;7516;43.570;1.448;2022-11-20T13:16:35;99767.56;;;11.10;100.00
28306;BME280;7516;43.570;1.448;2022-11-20T13:19:05;99764.94;;;11.10;100.00
28306;BME280;7516;43.570;1.448;2022-11-20T13:21:39;99758.34;;;11.14;100.00
28306;BME280;7516;43.570;1.448;2022-11-20T13:24:21;99763.53;;;11.22;100.00
28306;BME280;7516;43.570;1.448;2022-11-20T13:27:04;99762.19;;;11.26;100.00
28306;BME280;7516;43.570;1.448;2022-11-20T13:29:32;99757.59;;;11.28;100.00
28306;BME280;7516;43.570;1.448;2022-11-20T13:32:05;99755.97;;;11.27;100.00
28306;BME280;7516;43.570;1.448;2022-11-20T13:34:35;99748.72;;;11.29;100.00